sensor_id;sensor_type;location;lat;lon;timestamp;temperature;humidity
12893;DHT22;6514;48.606;9.222;2024-02-26T00:01:49;7.60;99.90
12893;DHT22;6514;48.606;9.222;2024-02-26T00:04:18;7.50;99.90
12893;DHT22;6514;48.606;9.222;2024-02-26T00:06:44;7.40;99.90
12893;DHT22;6514;48.606;9.222;2024-02-26T00:09:11;7.40;99.90
12893;DHT22;6514;48.606;9.222;2024-02-26T00:11:38;7.30;99.90
12893;DHT22;6514;48.606;9.222;2024-02-26T00:14:05;7.20;99.90
12893;DHT22;6514;48.606;9.222;2024-02-26T00:16:32;7.10;99.90
12893;DHT22;6514;48.606;9.222;2024-02-26T00:18:59;7.10;99.90
12893;DHT22;6514;48.606;9.222;2024-02-26T00:21:28;7.10;99.90
12893;DHT22;6514;48.606;9.222;2024-02-26T00:23:54;7.20;99.90
12893;DHT22;6514;48.606;9.222;2024-02-26T00:26:21;7.10;99.90
12893;DHT22;6514;48.606;9.222;2024-02-26T00:28:48;7.10;99.90
12893;DHT22;6514;48.606;9.222;2024-02-26T00:31:15;7.00;99.90
12893;DHT22;6514;48.606;9.222;2024-02-26T00:33:42;7.00;99.90
12893;DHT22;6514;48.606;9.222;2024-02-26T00:36:09;6.90;99.90
12893;DHT22;6514;48.606;9.222;2024-02-26T00:38:37;6.90;99.90
12893;DHT22;6514;48.606;9.222;2024-02-26T00:41:05;6.90;99.90
12893;DHT22;6514;48.606;9.222;2024-02-26T00:43:31;6.90;99.90
12893;DHT22;6514;48.606;9.222;2024-02-26T00:45:58;6.90;99.90
12893;DHT22;6514;48.606;9.222;2024-02-26T00:48:25;6.90;99.90
12893;DHT22;6514;48.606;9.222;2024-02-26T00:50:52;6.80;99.90
12893;DHT22;6514;48.606;9.222;2024-02-26T00:53:19;6.80;99.90
12893;DHT22;6514;48.606;9.222;2024-02-26T00:55:47;6.90;99.90
12893;DHT22;6514;48.606;9.222;2024-02-26T00:58:14;7.00;99.90
12893;DHT22;6514;48.606;9.222;2024-02-26T01:00:41;7.00;99.90
12893;DHT22;6514;48.606;9.222;2024-02-26T01:03:08;7.10;99.90
12893;DHT22;6514;48.606;9.222;2024-02-26T01:05:36;7.00;99.90
12893;DHT22;6514;48.606;9.222;2024-02-26T01:08:03;6.90;99.90
12893;DHT22;6514;48.606;9.222;2024-02-26T01:10:30;6.80;99.90
12893;DHT22;6514;48.606;9.222;2024-02-26T01:12:58;6.70;99.90
12893;DHT22;6514;48.606;9.222;2024-02-26T01:15:25;6.60;99.90
12893;DHT22;6514;48.606;9.222;2024-02-26T01:17:52;6.60;99.90
12893;DHT22;6514;48.606;9.222;2024-02-26T01:20:19;6.50;99.90
12893;DHT22;6514;48.606;9.222;2024-02-26T01:22:46;6.40;99.90
12893;DHT22;6514;48.606;9.222;2024-02-26T01:25:13;6.40;99.90
12893;DHT22;6514;48.606;9.222;2024-02-26T01:27:41;6.30;99.90
12893;DHT22;6514;48.606;9.222;2024-02-26T01:30:11;6.30;99.90
12893;DHT22;6514;48.606;9.222;2024-02-26T01:32:38;6.40;99.90
12893;DHT22;6514;48.606;9.222;2024-02-26T01:35:05;6.30;99.90
12893;DHT22;6514;48.606;9.222;2024-02-26T01:37:35;6.40;99.90
12893;DHT22;6514;48.606;9.222;2024-02-26T01:40:03;6.40;99.90
12893;DHT22;6514;48.606;9.222;2024-02-26T01:42:30;6.40;99.90
12893;DHT22;6514;48.606;9.222;2024-02-26T01:44:57;6.50;99.90
12893;DHT22;6514;48.606;9.222;2024-02-26T01:47:26;6.50;99.90
12893;DHT22;6514;48.606;9.222;2024-02-26T01:49:54;6.50;99.90
12893;DHT22;6514;48.606;9.222;2024-02-26T01:52:21;6.50;99.90
12893;DHT22;6514;48.606;9.222;2024-02-26T01:54:48;6.50;99.90
12893;DHT22;6514;48.606;9.222;2024-02-26T01:57:16;6.50;99.90
12893;DHT22;6514;48.606;9.222;2024-02-26T01:59:44;6.50;99.90
12893;DHT22;6514;48.606;9.222;2024-02-26T02:02:11;6.60;99.90
12893;DHT22;6514;48.606;9.222;2024-02-26T02:04:40;6.60;99.90
12893;DHT22;6514;48.606;9.222;2024-02-26T02:07:07;6.70;99.90
12893;DHT22;6514;48.606;9.222;2024-02-26T02:09:34;6.80;99.90
12893;DHT22;6514;48.606;9.222;2024-02-26T02:12:01;6.90;99.90
12893;DHT22;6514;48.606;9.222;2024-02-26T02:14:28;6.90;99.90
12893;DHT22;6514;48.606;9.222;2024-02-26T02:16:54;6.90;99.90
12893;DHT22;6514;48.606;9.222;2024-02-26T02:19:21;6.90;99.90
12893;DHT22;6514;48.606;9.222;2024-02-26T02:21:49;6.90;99.90
12893;DHT22;6514;48.606;9.222;2024-02-26T02:24:16;6.90;99.90
12893;DHT22;6514;48.606;9.222;2024-02-26T02:26:43;6.90;99.90
12893;DHT22;6514;48.606;9.222;2024-02-26T02:29:10;6.90;99.90
12893;DHT22;6514;48.606;9.222;2024-02-26T02:31:37;6.90;99.90
12893;DHT22;6514;48.606;9.222;2024-02-26T02:34:04;6.90;99.90
12893;DHT22;6514;48.606;9.222;2024-02-26T02:36:30;7.00;99.90
12893;DHT22;6514;48.606;9.222;2024-02-26T02:38:59;7.00;99.90
12893;DHT22;6514;48.606;9.222;2024-02-26T02:41:25;7.00;99.90
12893;DHT22;6514;48.606;9.222;2024-02-26T02:43:55;7.10;99.90
12893;DHT22;6514;48.606;9.222;2024-02-26T02:46:22;7.10;99.90
12893;DHT22;6514;48.606;9.222;2024-02-26T02:48:48;7.10;99.90
12893;DHT22;6514;48.606;9.222;2024-02-26T02:51:15;7.10;99.90
12893;DHT22;6514;48.606;9.222;2024-02-26T02:53:42;7.10;99.90
12893;DHT22;6514;48.606;9.222;2024-02-26T02:56:10;7.00;99.90
12893;DHT22;6514;48.606;9.222;2024-02-26T02:58:37;7.00;99.90
12893;DHT22;6514;48.606;9.222;2024-02-26T03:01:04;7.00;99.90
12893;DHT22;6514;48.606;9.222;2024-02-26T03:03:32;7.00;99.90
12893;DHT22;6514;48.606;9.222;2024-02-26T03:05:59;6.90;99.90
12893;DHT22;6514;48.606;9.222;2024-02-26T03:08:26;6.90;99.90
12893;DHT22;6514;48.606;9.222;2024-02-26T03:10:53;6.80;99.90
12893;DHT22;6514;48.606;9.222;2024-02-26T03:13:21;6.90;99.90
12893;DHT22;6514;48.606;9.222;2024-02-26T03:15:48;6.90;99.90
12893;DHT22;6514;48.606;9.222;2024-02-26T03:18:15;7.00;99.90
12893;DHT22;6514;48.606;9.222;2024-02-26T03:20:42;7.10;99.90
12893;DHT22;6514;48.606;9.222;2024-02-26T03:23:09;7.10;99.90
12893;DHT22;6514;48.606;9.222;2024-02-26T03:25:38;7.10;99.90
12893;DHT22;6514;48.606;9.222;2024-02-26T03:28:05;7.10;99.90
12893;DHT22;6514;48.606;9.222;2024-02-26T03:30:33;7.10;99.90
12893;DHT22;6514;48.606;9.222;2024-02-26T03:33:01;7.10;99.90
12893;DHT22;6514;48.606;9.222;2024-02-26T03:35:28;7.10;99.90
12893;DHT22;6514;48.606;9.222;2024-02-26T03:37:54;7.10;99.90
12893;DHT22;6514;48.606;9.222;2024-02-26T03:40:21;7.10;99.90
12893;DHT22;6514;48.606;9.222;2024-02-26T03:42:48;7.10;99.90
12893;DHT22;6514;48.606;9.222;2024-02-26T03:45:15;7.10;99.90
12893;DHT22;6514;48.606;9.222;2024-02-26T03:47:43;7.10;99.90
12893;DHT22;6514;48.606;9.222;2024-02-26T03:50:10;7.00;99.90
12893;DHT22;6514;48.606;9.222;2024-02-26T03:52:37;6.80;99.90
12893;DHT22;6514;48.606;9.222;2024-02-26T03:55:04;6.80;99.90
12893;DHT22;6514;48.606;9.222;2024-02-26T03:57:31;6.70;99.90
12893;DHT22;6514;48.606;9.222;2024-02-26T03:59:58;6.60;99.90
12893;DHT22;6514;48.606;9.222;2024-02-26T04:02:24;6.60;99.90
12893;DHT22;6514;48.606;9.222;2024-02-26T04:04:53;6.50;99.90
12893;DHT22;6514;48.606;9.222;2024-02-26T04:07:20;6.50;99.90
12893;DHT22;6514;48.606;9.222;2024-02-26T04:09:47;6.40;99.90
12893;DHT22;6514;48.606;9.222;2024-02-26T04:12:14;6.40;99.90
12893;DHT22;6514;48.606;9.222;2024-02-26T04:14:41;6.30;99.90
12893;DHT22;6514;48.606;9.222;2024-02-26T04:17:07;6.30;99.90
12893;DHT22;6514;48.606;9.222;2024-02-26T04:19:34;6.30;99.90
12893;DHT22;6514;48.606;9.222;2024-02-26T04:22:02;6.30;99.90
12893;DHT22;6514;48.606;9.222;2024-02-26T04:24:29;6.30;99.90
12893;DHT22;6514;48.606;9.222;2024-02-26T04:26:56;6.30;99.90
12893;DHT22;6514;48.606;9.222;2024-02-26T04:29:23;6.30;99.90
12893;DHT22;6514;48.606;9.222;2024-02-26T04:31:50;6.30;99.90
12893;DHT22;6514;48.606;9.222;2024-02-26T04:34:16;6.30;99.90
12893;DHT22;6514;48.606;9.222;2024-02-26T04:36:43;6.30;99.90
12893;DHT22;6514;48.606;9.222;2024-02-26T04:39:11;6.30;99.90
12893;DHT22;6514;48.606;9.222;2024-02-26T04:41:38;6.30;99.90
12893;DHT22;6514;48.606;9.222;2024-02-26T04:44:05;6.30;99.90
12893;DHT22;6514;48.606;9.222;2024-02-26T04:46:32;6.30;99.90
12893;DHT22;6514;48.606;9.222;2024-02-26T04:48:59;6.30;99.90
12893;DHT22;6514;48.606;9.222;2024-02-26T04:51:25;6.20;99.90
12893;DHT22;6514;48.606;9.222;2024-02-26T04:53:52;6.20;99.90
12893;DHT22;6514;48.606;9.222;2024-02-26T04:56:22;6.20;99.90
12893;DHT22;6514;48.606;9.222;2024-02-26T04:58:48;6.10;99.90
12893;DHT22;6514;48.606;9.222;2024-02-26T05:01:16;6.10;99.90
12893;DHT22;6514;48.606;9.222;2024-02-26T05:03:43;6.10;99.90
12893;DHT22;6514;48.606;9.222;2024-02-26T05:06:10;6.10;99.90
12893;DHT22;6514;48.606;9.222;2024-02-26T05:08:36;6.10;99.90
12893;DHT22;6514;48.606;9.222;2024-02-26T05:11:04;6.10;99.90
12893;DHT22;6514;48.606;9.222;2024-02-26T05:13:32;6.10;99.90
12893;DHT22;6514;48.606;9.222;2024-02-26T05:15:59;6.10;99.90
12893;DHT22;6514;48.606;9.222;2024-02-26T05:18:26;6.10;99.90
12893;DHT22;6514;48.606;9.222;2024-02-26T05:20:53;6.10;99.90
12893;DHT22;6514;48.606;9.222;2024-02-26T05:23:19;6.10;99.90
12893;DHT22;6514;48.606;9.222;2024-02-26T05:25:46;6.10;99.90
12893;DHT22;6514;48.606;9.222;2024-02-26T05:28:13;6.00;99.90
12893;DHT22;6514;48.606;9.222;2024-02-26T05:30:43;6.00;99.90
12893;DHT22;6514;48.606;9.222;2024-02-26T05:33:10;6.00;99.90
12893;DHT22;6514;48.606;9.222;2024-02-26T05:35:37;6.00;99.90
12893;DHT22;6514;48.606;9.222;2024-02-26T05:38:04;5.90;99.90
12893;DHT22;6514;48.606;9.222;2024-02-26T05:40:30;5.90;99.90
12893;DHT22;6514;48.606;9.222;2024-02-26T05:42:57;5.90;99.90
12893;DHT22;6514;48.606;9.222;2024-02-26T05:45:24;5.90;99.90
12893;DHT22;6514;48.606;9.222;2024-02-26T05:47:52;5.90;99.90
12893;DHT22;6514;48.606;9.222;2024-02-26T05:50:19;5.90;99.90
12893;DHT22;6514;48.606;9.222;2024-02-26T05:52:46;5.90;99.90
12893;DHT22;6514;48.606;9.222;2024-02-26T05:55:12;5.80;99.90
12893;DHT22;6514;48.606;9.222;2024-02-26T05:57:40;5.80;99.90
12893;DHT22;6514;48.606;9.222;2024-02-26T06:00:08;5.70;99.90
12893;DHT22;6514;48.606;9.222;2024-02-26T06:02:35;5.60;99.90
12893;DHT22;6514;48.606;9.222;2024-02-26T06:05:03;5.50;99.90
12893;DHT22;6514;48.606;9.222;2024-02-26T06:07:30;5.40;99.90
12893;DHT22;6514;48.606;9.222;2024-02-26T06:09:57;5.30;99.90
12893;DHT22;6514;48.606;9.222;2024-02-26T06:12:24;5.20;99.90
12893;DHT22;6514;48.606;9.222;2024-02-26T06:14:52;5.20;99.90
12893;DHT22;6514;48.606;9.222;2024-02-26T06:17:18;5.10;99.90
12893;DHT22;6514;48.606;9.222;2024-02-26T06:19:45;5.10;99.90
12893;DHT22;6514;48.606;9.222;2024-02-26T06:22:13;5.10;99.90
12893;DHT22;6514;48.606;9.222;2024-02-26T06:24:40;5.10;99.90
12893;DHT22;6514;48.606;9.222;2024-02-26T06:27:07;5.10;99.90
12893;DHT22;6514;48.606;9.222;2024-02-26T06:29:34;5.20;99.90
12893;DHT22;6514;48.606;9.222;2024-02-26T06:32:01;5.20;99.90
12893;DHT22;6514;48.606;9.222;2024-02-26T06:34:27;5.20;99.90
12893;DHT22;6514;48.606;9.222;2024-02-26T06:36:54;5.10;99.90
12893;DHT22;6514;48.606;9.222;2024-02-26T06:39:23;5.10;99.90
12893;DHT22;6514;48.606;9.222;2024-02-26T06:41:49;5.10;99.90
12893;DHT22;6514;48.606;9.222;2024-02-26T06:44:19;5.00;99.90
12893;DHT22;6514;48.606;9.222;2024-02-26T06:46:46;5.00;99.90
12893;DHT22;6514;48.606;9.222;2024-02-26T06:49:13;5.00;99.90
12893;DHT22;6514;48.606;9.222;2024-02-26T06:51:39;5.00;99.90
12893;DHT22;6514;48.606;9.222;2024-02-26T06:54:06;5.10;99.90
12893;DHT22;6514;48.606;9.222;2024-02-26T06:56:36;5.10;99.90
12893;DHT22;6514;48.606;9.222;2024-02-26T06:59:03;5.20;99.90
12893;DHT22;6514;48.606;9.222;2024-02-26T07:01:29;5.20;99.90
12893;DHT22;6514;48.606;9.222;2024-02-26T07:03:56;5.30;99.90
12893;DHT22;6514;48.606;9.222;2024-02-26T07:06:23;5.40;99.90
12893;DHT22;6514;48.606;9.222;2024-02-26T07:08:50;5.50;99.90
12893;DHT22;6514;48.606;9.222;2024-02-26T07:11:17;5.60;99.90
12893;DHT22;6514;48.606;9.222;2024-02-26T07:13:46;6.80;99.90
12893;DHT22;6514;48.606;9.222;2024-02-26T07:16:15;5.90;99.90
12893;DHT22;6514;48.606;9.222;2024-02-26T07:18:42;6.00;99.90
12893;DHT22;6514;48.606;9.222;2024-02-26T07:21:08;6.10;99.90
12893;DHT22;6514;48.606;9.222;2024-02-26T07:23:35;6.20;99.90
12893;DHT22;6514;48.606;9.222;2024-02-26T07:26:02;6.20;99.90
12893;DHT22;6514;48.606;9.222;2024-02-26T07:28:29;6.30;99.90
12893;DHT22;6514;48.606;9.222;2024-02-26T07:30:57;6.30;99.90
12893;DHT22;6514;48.606;9.222;2024-02-26T07:33:24;6.40;99.90
12893;DHT22;6514;48.606;9.222;2024-02-26T07:35:51;6.40;99.90
12893;DHT22;6514;48.606;9.222;2024-02-26T07:38:19;6.50;99.90
12893;DHT22;6514;48.606;9.222;2024-02-26T07:40:46;6.60;99.90
12893;DHT22;6514;48.606;9.222;2024-02-26T07:43:12;6.60;99.90
12893;DHT22;6514;48.606;9.222;2024-02-26T07:45:39;6.60;99.90
12893;DHT22;6514;48.606;9.222;2024-02-26T07:48:08;6.70;99.90
12893;DHT22;6514;48.606;9.222;2024-02-26T07:50:34;6.80;99.90
12893;DHT22;6514;48.606;9.222;2024-02-26T07:53:01;6.90;99.90
12893;DHT22;6514;48.606;9.222;2024-02-26T07:55:28;7.00;99.90
12893;DHT22;6514;48.606;9.222;2024-02-26T07:57:55;7.10;99.90
12893;DHT22;6514;48.606;9.222;2024-02-26T08:00:21;7.10;99.90
12893;DHT22;6514;48.606;9.222;2024-02-26T08:02:48;7.10;99.90
12893;DHT22;6514;48.606;9.222;2024-02-26T08:05:16;7.20;99.90
12893;DHT22;6514;48.606;9.222;2024-02-26T08:07:43;7.20;99.90
12893;DHT22;6514;48.606;9.222;2024-02-26T08:10:10;7.30;99.90
12893;DHT22;6514;48.606;9.222;2024-02-26T08:12:37;7.30;99.90
12893;DHT22;6514;48.606;9.222;2024-02-26T08:15:05;7.30;99.90
12893;DHT22;6514;48.606;9.222;2024-02-26T08:17:32;7.30;99.90
12893;DHT22;6514;48.606;9.222;2024-02-26T08:19:59;7.30;99.90
12893;DHT22;6514;48.606;9.222;2024-02-26T08:22:28;7.30;99.90
12893;DHT22;6514;48.606;9.222;2024-02-26T08:24:54;7.30;99.90
12893;DHT22;6514;48.606;9.222;2024-02-26T08:27:21;7.30;99.90
12893;DHT22;6514;48.606;9.222;2024-02-26T08:29:48;7.40;99.90
12893;DHT22;6514;48.606;9.222;2024-02-26T08:32:15;7.50;99.90
12893;DHT22;6514;48.606;9.222;2024-02-26T08:34:42;7.60;99.90
12893;DHT22;6514;48.606;9.222;2024-02-26T08:37:09;7.70;99.90
12893;DHT22;6514;48.606;9.222;2024-02-26T08:39:37;7.80;99.90
12893;DHT22;6514;48.606;9.222;2024-02-26T08:42:05;8.00;99.90
12893;DHT22;6514;48.606;9.222;2024-02-26T08:44:32;8.10;99.90
12893;DHT22;6514;48.606;9.222;2024-02-26T08:46:58;8.20;99.90
12893;DHT22;6514;48.606;9.222;2024-02-26T08:49:25;8.30;99.90
12893;DHT22;6514;48.606;9.222;2024-02-26T08:51:52;8.40;99.90
12893;DHT22;6514;48.606;9.222;2024-02-26T08:54:19;8.50;99.90
12893;DHT22;6514;48.606;9.222;2024-02-26T08:56:47;8.60;99.90
12893;DHT22;6514;48.606;9.222;2024-02-26T08:59:14;8.80;99.90
12893;DHT22;6514;48.606;9.222;2024-02-26T09:01:42;8.80;99.90
12893;DHT22;6514;48.606;9.222;2024-02-26T09:04:08;8.90;99.90
12893;DHT22;6514;48.606;9.222;2024-02-26T09:06:35;9.00;99.90
12893;DHT22;6514;48.606;9.222;2024-02-26T09:09:02;8.90;99.90
12893;DHT22;6514;48.606;9.222;2024-02-26T09:11:29;8.90;99.90
12893;DHT22;6514;48.606;9.222;2024-02-26T09:13:57;8.90;99.90
12893;DHT22;6514;48.606;9.222;2024-02-26T09:16:24;8.80;99.90
12893;DHT22;6514;48.606;9.222;2024-02-26T09:18:51;8.70;99.90
12893;DHT22;6514;48.606;9.222;2024-02-26T09:21:18;8.60;99.90
12893;DHT22;6514;48.606;9.222;2024-02-26T09:23:48;8.60;99.90
12893;DHT22;6514;48.606;9.222;2024-02-26T09:26:15;8.60;99.90
12893;DHT22;6514;48.606;9.222;2024-02-26T09:28:42;8.60;99.90
12893;DHT22;6514;48.606;9.222;2024-02-26T09:31:10;8.50;99.90
12893;DHT22;6514;48.606;9.222;2024-02-26T09:33:37;8.50;99.90
12893;DHT22;6514;48.606;9.222;2024-02-26T09:36:05;8.60;99.90
12893;DHT22;6514;48.606;9.222;2024-02-26T09:38:32;8.70;99.90
12893;DHT22;6514;48.606;9.222;2024-02-26T09:41:02;8.70;99.90
12893;DHT22;6514;48.606;9.222;2024-02-26T09:43:34;8.80;99.90
12893;DHT22;6514;48.606;9.222;2024-02-26T09:46:01;8.80;99.90
12893;DHT22;6514;48.606;9.222;2024-02-26T09:48:31;9.00;99.90
12893;DHT22;6514;48.606;9.222;2024-02-26T09:50:59;9.00;99.90
12893;DHT22;6514;48.606;9.222;2024-02-26T09:53:27;9.10;99.90
12893;DHT22;6514;48.606;9.222;2024-02-26T09:55:57;9.10;99.90
12893;DHT22;6514;48.606;9.222;2024-02-26T09:58:24;9.30;99.90
12893;DHT22;6514;48.606;9.222;2024-02-26T10:00:55;9.50;99.90
12893;DHT22;6514;48.606;9.222;2024-02-26T10:03:27;9.90;99.90
12893;DHT22;6514;48.606;9.222;2024-02-26T10:05:56;10.20;99.90
12893;DHT22;6514;48.606;9.222;2024-02-26T10:08:24;10.60;99.90
12893;DHT22;6514;48.606;9.222;2024-02-26T10:10:52;11.10;99.90
12893;DHT22;6514;48.606;9.222;2024-02-26T10:13:19;11.30;99.90
12893;DHT22;6514;48.606;9.222;2024-02-26T10:15:46;11.40;99.90
12893;DHT22;6514;48.606;9.222;2024-02-26T10:18:12;11.60;99.90
12893;DHT22;6514;48.606;9.222;2024-02-26T10:20:39;11.70;99.90
12893;DHT22;6514;48.606;9.222;2024-02-26T10:23:07;11.90;99.90
12893;DHT22;6514;48.606;9.222;2024-02-26T10:25:34;12.10;99.90
12893;DHT22;6514;48.606;9.222;2024-02-26T10:28:01;12.20;99.90
12893;DHT22;6514;48.606;9.222;2024-02-26T10:30:28;12.30;99.90
12893;DHT22;6514;48.606;9.222;2024-02-26T10:32:56;12.40;99.90
12893;DHT22;6514;48.606;9.222;2024-02-26T10:35:23;12.30;99.90
12893;DHT22;6514;48.606;9.222;2024-02-26T10:37:51;12.30;99.90
12893;DHT22;6514;48.606;9.222;2024-02-26T10:40:20;12.30;99.90
12893;DHT22;6514;48.606;9.222;2024-02-26T10:42:47;12.00;99.90
12893;DHT22;6514;48.606;9.222;2024-02-26T10:45:14;12.00;99.90
12893;DHT22;6514;48.606;9.222;2024-02-26T10:47:41;12.00;99.90
12893;DHT22;6514;48.606;9.222;2024-02-26T10:50:09;12.00;99.90
12893;DHT22;6514;48.606;9.222;2024-02-26T10:52:36;12.10;99.90
12893;DHT22;6514;48.606;9.222;2024-02-26T10:55:05;12.10;99.90
12893;DHT22;6514;48.606;9.222;2024-02-26T10:57:36;12.00;99.90
12893;DHT22;6514;48.606;9.222;2024-02-26T11:00:06;12.10;99.90
12893;DHT22;6514;48.606;9.222;2024-02-26T11:02:36;12.10;99.90
12893;DHT22;6514;48.606;9.222;2024-02-26T11:05:03;12.20;99.90
12893;DHT22;6514;48.606;9.222;2024-02-26T11:07:30;12.30;99.90
12893;DHT22;6514;48.606;9.222;2024-02-26T11:09:59;12.40;99.90
12893;DHT22;6514;48.606;9.222;2024-02-26T11:12:28;12.60;99.90
12893;DHT22;6514;48.606;9.222;2024-02-26T11:14:58;12.60;99.90
12893;DHT22;6514;48.606;9.222;2024-02-26T11:17:27;12.70;99.90
12893;DHT22;6514;48.606;9.222;2024-02-26T11:19:57;12.70;99.90
12893;DHT22;6514;48.606;9.222;2024-02-26T11:22:24;12.60;99.90
12893;DHT22;6514;48.606;9.222;2024-02-26T11:24:52;12.60;99.90
12893;DHT22;6514;48.606;9.222;2024-02-26T11:27:23;12.60;99.90
12893;DHT22;6514;48.606;9.222;2024-02-26T11:29:52;12.50;99.90
12893;DHT22;6514;48.606;9.222;2024-02-26T11:32:21;12.60;99.90
12893;DHT22;6514;48.606;9.222;2024-02-26T11:34:48;12.70;99.90
12893;DHT22;6514;48.606;9.222;2024-02-26T11:37:17;12.90;99.90
12893;DHT22;6514;48.606;9.222;2024-02-26T11:39:45;13.00;99.90
12893;DHT22;6514;48.606;9.222;2024-02-26T11:42:14;13.10;99.90
12893;DHT22;6514;48.606;9.222;2024-02-26T11:44:41;13.20;99.90
12893;DHT22;6514;48.606;9.222;2024-02-26T11:47:12;13.20;99.90
12893;DHT22;6514;48.606;9.222;2024-02-26T11:49:40;13.30;99.90
12893;DHT22;6514;48.606;9.222;2024-02-26T11:52:08;13.30;99.90
12893;DHT22;6514;48.606;9.222;2024-02-26T11:54:45;13.40;99.90
12893;DHT22;6514;48.606;9.222;2024-02-26T11:57:25;13.50;99.90
12893;DHT22;6514;48.606;9.222;2024-02-26T11:59:53;13.50;99.90
12893;DHT22;6514;48.606;9.222;2024-02-26T12:02:47;13.80;99.90
12893;DHT22;6514;48.606;9.222;2024-02-26T12:05:21;14.10;99.90
12893;DHT22;6514;48.606;9.222;2024-02-26T12:07:50;14.40;99.90
12893;DHT22;6514;48.606;9.222;2024-02-26T12:10:24;14.70;99.90
12893;DHT22;6514;48.606;9.222;2024-02-26T12:13:10;15.00;99.90
12893;DHT22;6514;48.606;9.222;2024-02-26T12:15:38;15.30;99.90
12893;DHT22;6514;48.606;9.222;2024-02-26T12:18:07;15.40;99.90
12893;DHT22;6514;48.606;9.222;2024-02-26T12:20:37;15.70;99.90
12893;DHT22;6514;48.606;9.222;2024-02-26T12:23:04;15.90;99.90
12893;DHT22;6514;48.606;9.222;2024-02-26T12:25:32;16.30;99.90
12893;DHT22;6514;48.606;9.222;2024-02-26T12:27:59;16.40;99.90
12893;DHT22;6514;48.606;9.222;2024-02-26T12:30:27;16.30;99.90
12893;DHT22;6514;48.606;9.222;2024-02-26T12:32:56;16.20;99.90
12893;DHT22;6514;48.606;9.222;2024-02-26T12:35:24;16.10;99.90
12893;DHT22;6514;48.606;9.222;2024-02-26T12:37:52;15.90;99.90
12893;DHT22;6514;48.606;9.222;2024-02-26T12:40:20;15.70;99.90
12893;DHT22;6514;48.606;9.222;2024-02-26T12:42:47;15.70;99.90
12893;DHT22;6514;48.606;9.222;2024-02-26T12:45:14;15.70;99.90
12893;DHT22;6514;48.606;9.222;2024-02-26T12:47:42;15.70;99.90
12893;DHT22;6514;48.606;9.222;2024-02-26T12:50:10;15.80;99.90
12893;DHT22;6514;48.606;9.222;2024-02-26T12:52:39;15.80;99.90
12893;DHT22;6514;48.606;9.222;2024-02-26T12:55:08;15.70;99.90
12893;DHT22;6514;48.606;9.222;2024-02-26T12:57:36;15.60;99.90
12893;DHT22;6514;48.606;9.222;2024-02-26T13:00:05;15.20;99.90
12893;DHT22;6514;48.606;9.222;2024-02-26T13:02:35;15.00;99.90
12893;DHT22;6514;48.606;9.222;2024-02-26T13:05:03;14.80;99.90
12893;DHT22;6514;48.606;9.222;2024-02-26T13:07:30;14.80;99.90
12893;DHT22;6514;48.606;9.222;2024-02-26T13:09:58;14.70;99.90
12893;DHT22;6514;48.606;9.222;2024-02-26T13:12:26;14.70;99.90
12893;DHT22;6514;48.606;9.222;2024-02-26T13:15:00;14.70;99.90
12893;DHT22;6514;48.606;9.222;2024-02-26T13:17:27;14.60;99.90
12893;DHT22;6514;48.606;9.222;2024-02-26T13:19:55;14.50;99.90
12893;DHT22;6514;48.606;9.222;2024-02-26T13:22:22;14.50;99.90
12893;DHT22;6514;48.606;9.222;2024-02-26T13:24:56;14.40;99.90
12893;DHT22;6514;48.606;9.222;2024-02-26T13:27:23;14.50;99.90
12893;DHT22;6514;48.606;9.222;2024-02-26T13:30:04;14.60;99.90
12893;DHT22;6514;48.606;9.222;2024-02-26T13:32:32;14.60;99.90
12893;DHT22;6514;48.606;9.222;2024-02-26T13:35:07;14.50;99.90
12893;DHT22;6514;48.606;9.222;2024-02-26T13:37:34;14.30;99.90
12893;DHT22;6514;48.606;9.222;2024-02-26T13:40:04;14.30;99.90
12893;DHT22;6514;48.606;9.222;2024-02-26T13:42:31;14.30;99.90
12893;DHT22;6514;48.606;9.222;2024-02-26T13:44:58;14.30;99.90
12893;DHT22;6514;48.606;9.222;2024-02-26T13:47:27;14.30;99.90
12893;DHT22;6514;48.606;9.222;2024-02-26T13:49:53;14.40;99.90
12893;DHT22;6514;48.606;9.222;2024-02-26T13:52:22;14.50;99.90
12893;DHT22;6514;48.606;9.222;2024-02-26T13:54:49;14.60;99.90
12893;DHT22;6514;48.606;9.222;2024-02-26T13:57:16;14.70;99.90
12893;DHT22;6514;48.606;9.222;2024-02-26T13:59:44;14.80;99.90
12893;DHT22;6514;48.606;9.222;2024-02-26T14:02:11;15.00;99.90
12893;DHT22;6514;48.606;9.222;2024-02-26T14:04:39;15.20;99.90
12893;DHT22;6514;48.606;9.222;2024-02-26T14:07:06;15.30;99.90
12893;DHT22;6514;48.606;9.222;2024-02-26T14:09:33;15.30;99.90
12893;DHT22;6514;48.606;9.222;2024-02-26T14:12:00;15.40;99.90
12893;DHT22;6514;48.606;9.222;2024-02-26T14:14:27;15.40;99.90
12893;DHT22;6514;48.606;9.222;2024-02-26T14:16:54;15.40;99.90
12893;DHT22;6514;48.606;9.222;2024-02-26T14:19:21;15.40;99.90
12893;DHT22;6514;48.606;9.222;2024-02-26T14:21:49;15.40;99.90
12893;DHT22;6514;48.606;9.222;2024-02-26T14:24:16;15.50;99.90
12893;DHT22;6514;48.606;9.222;2024-02-26T14:26:43;15.50;99.90
12893;DHT22;6514;48.606;9.222;2024-02-26T14:29:10;15.60;99.90
12893;DHT22;6514;48.606;9.222;2024-02-26T14:31:37;15.50;99.90
12893;DHT22;6514;48.606;9.222;2024-02-26T14:34:03;15.70;99.90
12893;DHT22;6514;48.606;9.222;2024-02-26T14:36:30;15.50;99.90
12893;DHT22;6514;48.606;9.222;2024-02-26T14:38:59;15.40;99.90
12893;DHT22;6514;48.606;9.222;2024-02-26T14:41:25;15.30;99.90
12893;DHT22;6514;48.606;9.222;2024-02-26T14:43:52;15.00;99.90
12893;DHT22;6514;48.606;9.222;2024-02-26T14:46:19;14.80;99.90
12893;DHT22;6514;48.606;9.222;2024-02-26T14:48:46;14.60;99.90
12893;DHT22;6514;48.606;9.222;2024-02-26T14:51:13;14.50;99.90
12893;DHT22;6514;48.606;9.222;2024-02-26T14:53:39;14.40;99.90
12893;DHT22;6514;48.606;9.222;2024-02-26T14:56:08;14.40;99.90
12893;DHT22;6514;48.606;9.222;2024-02-26T14:58:35;14.30;99.90
12893;DHT22;6514;48.606;9.222;2024-02-26T15:01:03;14.20;99.90
12893;DHT22;6514;48.606;9.222;2024-02-26T15:03:30;14.10;99.90
12893;DHT22;6514;48.606;9.222;2024-02-26T15:05:57;14.00;99.90
12893;DHT22;6514;48.606;9.222;2024-02-26T15:08:24;13.80;99.90
12893;DHT22;6514;48.606;9.222;2024-02-26T15:10:50;13.70;99.90
12893;DHT22;6514;48.606;9.222;2024-02-26T15:13:19;13.70;99.90
12893;DHT22;6514;48.606;9.222;2024-02-26T15:15:46;13.60;99.90
12893;DHT22;6514;48.606;9.222;2024-02-26T15:18:13;13.60;99.90
12893;DHT22;6514;48.606;9.222;2024-02-26T15:20:41;13.50;99.90
12893;DHT22;6514;48.606;9.222;2024-02-26T15:23:08;13.40;99.90
12893;DHT22;6514;48.606;9.222;2024-02-26T15:25:35;13.30;99.90
12893;DHT22;6514;48.606;9.222;2024-02-26T15:28:02;13.20;99.90
12893;DHT22;6514;48.606;9.222;2024-02-26T15:30:30;13.10;99.90
12893;DHT22;6514;48.606;9.222;2024-02-26T15:32:58;12.90;99.90
12893;DHT22;6514;48.606;9.222;2024-02-26T15:35:25;12.80;99.90
12893;DHT22;6514;48.606;9.222;2024-02-26T15:37:52;12.80;99.90
12893;DHT22;6514;48.606;9.222;2024-02-26T15:40:19;12.60;99.90
12893;DHT22;6514;48.606;9.222;2024-02-26T15:42:47;12.50;99.90
12893;DHT22;6514;48.606;9.222;2024-02-26T15:45:15;12.40;99.90
12893;DHT22;6514;48.606;9.222;2024-02-26T15:47:43;12.40;99.90
12893;DHT22;6514;48.606;9.222;2024-02-26T15:50:10;12.30;99.90
12893;DHT22;6514;48.606;9.222;2024-02-26T15:52:37;12.30;99.90
12893;DHT22;6514;48.606;9.222;2024-02-26T15:55:05;12.20;99.90
12893;DHT22;6514;48.606;9.222;2024-02-26T15:57:32;12.10;99.90